Time;durP1;ratioP1;P1;durP2;ratioP2;P2;SDS_P1;SDS_P2;PMS_P1;PMS_P2;Temp;Humidity;BMP_temperature;BMP_pressure;BME280_temperature;BME280_humidity;BME280_pressure;Samples;Min_cycle;Max_cycle;Signal;HPM_P1;HPM_P2
2023/06/28 00:00:14;;;;;;;3.85;3.03;;;20.00;99.90;;;;;;4979476;28;20027;-67
2023/06/28 00:02:40;;;;;;;6.90;2.97;;;19.90;99.90;;;;;;4977641;28;20025;-67
2023/06/28 00:05:09;;;;;;;7.05;2.97;;;19.90;99.90;;;;;;4978998;28;20403;-67
2023/06/28 00:07:35;;;;;;;7.68;2.80;;;19.90;99.90;;;;;;4977735;28;20023;-67
2023/06/28 00:10:01;;;;;;;4.63;2.67;;;19.90;99.90;;;;;;4978820;28;20437;-67
2023/06/28 00:12:29;;;;;;;7.18;2.58;;;19.80;99.90;;;;;;4978320;28;20054;-67
2023/06/28 00:14:55;;;;;;;6.57;2.92;;;19.80;99.90;;;;;;4978826;28;20022;-67
2023/06/28 00:17:27;;;;;;;8.80;3.22;;;19.80;99.90;;;;;;4977544;28;20488;-67
2023/06/28 00:19:54;;;;;;;5.50;3.38;;;19.80;99.90;;;;;;4978730;28;20056;-67
2023/06/28 00:22:22;;;;;;;7.07;2.90;;;19.80;99.90;;;;;;4978460;28;20015;-67
2023/06/28 00:24:47;;;;;;;8.27;3.10;;;19.80;99.90;;;;;;4978981;28;20030;-67
2023/06/28 00:27:13;;;;;;;11.65;3.33;;;19.90;99.90;;;;;;4977150;28;20031;-67
2023/06/28 00:29:39;;;;;;;5.88;2.65;;;19.90;99.90;;;;;;4978945;28;20041;-67
2023/06/28 00:32:04;;;;;;;5.75;2.95;;;19.80;99.90;;;;;;4977949;28;20031;-67
2023/06/28 00:34:30;;;;;;;8.13;3.63;;;19.90;99.90;;;;;;4978474;28;20018;-67
2023/06/28 00:36:56;;;;;;;11.88;3.03;;;20.00;99.90;;;;;;4977439;28;20037;-67
2023/06/28 00:39:21;;;;;;;6.32;2.95;;;19.90;99.90;;;;;;4977110;28;20034;-67
2023/06/28 00:41:47;;;;;;;6.38;3.63;;;19.90;99.90;;;;;;4978629;28;20118;-67
2023/06/28 00:44:13;;;;;;;6.03;3.20;;;19.90;99.90;;;;;;4977783;28;20035;-67
2023/06/28 00:46:45;;;;;;;5.07;2.90;;;19.80;99.90;;;;;;4977268;28;20027;-67
2023/06/28 00:49:11;;;;;;;10.82;3.00;;;19.80;99.90;;;;;;4978219;28;20026;-67
2023/06/28 00:51:37;;;;;;;6.10;3.20;;;19.80;99.90;;;;;;4978148;28;20018;-67
2023/06/28 00:54:03;;;;;;;8.48;3.20;;;19.70;99.90;;;;;;4977797;28;20709;-67
2023/06/28 00:56:29;;;;;;;8.10;3.00;;;19.60;99.90;;;;;;4977453;28;20102;-67
2023/06/28 00:58:55;;;;;;;10.93;3.50;;;19.60;99.90;;;;;;4974222;28;20031;-67
2023/06/28 01:01:21;;;;;;;5.88;3.25;;;19.60;99.90;;;;;;4977922;28;20029;-67
2023/06/28 01:03:50;;;;;;;5.95;2.78;;;19.50;99.90;;;;;;4974280;28;20082;-67
2023/06/28 01:06:18;;;;;;;9.38;3.40;;;19.50;99.90;;;;;;4977019;28;20042;-67
2023/06/28 01:08:45;;;;;;;8.55;2.60;;;19.50;99.90;;;;;;4976338;28;20031;-67
2023/06/28 01:11:11;;;;;;;6.22;3.70;;;19.50;99.90;;;;;;4977755;28;20027;-67
2023/06/28 01:13:38;;;;;;;9.18;3.50;;;19.50;99.90;;;;;;4977334;28;20037;-67
2023/06/28 01:16:05;;;;;;;12.00;3.90;;;19.40;99.90;;;;;;4976710;28;20015;-67
2023/06/28 01:18:33;;;;;;;13.43;3.60;;;19.30;99.90;;;;;;4976028;28;20023;-67
2023/06/28 01:21:02;;;;;;;8.20;3.10;;;19.30;99.90;;;;;;4976015;28;20126;-67
2023/06/28 01:23:28;;;;;;;8.13;3.20;;;19.30;99.90;;;;;;4977610;28;20035;-67
2023/06/28 01:25:55;;;;;;;6.20;3.17;;;19.30;99.90;;;;;;4976797;28;20053;-67
2023/06/28 01:28:21;;;;;;;6.03;3.20;;;19.30;99.90;;;;;;4976596;28;20027;-67
2023/06/28 01:30:52;;;;;;;5.28;3.15;;;19.20;99.90;;;;;;4977065;28;20019;-67
2023/06/28 01:33:18;;;;;;;10.82;3.17;;;19.10;99.90;;;;;;4977314;28;20688;-67
2023/06/28 01:35:45;;;;;;;9.90;3.08;;;19.00;99.90;;;;;;4977107;28;20093;-67
2023/06/28 01:38:12;;;;;;;9.10;3.50;;;18.90;99.90;;;;;;4974585;28;20117;-67
2023/06/28 01:40:39;;;;;;;8.07;3.15;;;18.80;99.90;;;;;;4977330;28;20030;-67
2023/06/28 01:43:06;;;;;;;7.75;3.25;;;18.70;99.90;;;;;;4976977;28;20467;-67
2023/06/28 01:45:36;;;;;;;13.10;3.92;;;18.70;99.90;;;;;;4977014;28;20031;-67
2023/06/28 01:48:02;;;;;;;5.28;3.53;;;18.60;99.90;;;;;;4976060;28;20026;-67
2023/06/28 01:50:29;;;;;;;6.15;3.70;;;18.60;99.90;;;;;;4977346;28;20033;-67
2023/06/28 01:53:00;;;;;;;8.65;3.97;;;18.60;99.90;;;;;;4975612;28;20031;-68
2023/06/28 01:55:26;;;;;;;9.93;4.38;;;18.50;99.90;;;;;;4976594;28;20019;-68
2023/06/28 01:57:51;;;;;;;6.25;3.53;;;18.50;99.90;;;;;;4972978;28;20038;-67
2023/06/28 02:00:17;;;;;;;7.45;4.22;;;18.50;99.90;;;;;;5008149;28;20054;-67
2023/06/28 02:02:43;;;;;;;6.75;3.25;;;18.50;99.90;;;;;;4977058;28;20045;-67
2023/06/28 02:05:09;;;;;;;8.35;3.92;;;18.50;99.90;;;;;;4976740;28;20484;-68
2023/06/28 02:07:34;;;;;;;7.85;4.00;;;18.40;99.90;;;;;;4974441;28;20030;-67
2023/06/28 02:10:00;;;;;;;10.68;4.45;;;18.40;99.90;;;;;;4976884;28;20098;-67
2023/06/28 02:12:26;;;;;;;8.02;3.85;;;18.30;99.90;;;;;;4976356;28;20045;-68
2023/06/28 02:14:52;;;;;;;8.75;4.10;;;18.40;99.90;;;;;;4976928;28;20023;-67
2023/06/28 02:17:20;;;;;;;8.07;4.30;;;18.40;99.90;;;;;;4974640;28;20599;-67
2023/06/28 02:19:47;;;;;;;8.25;3.50;;;18.40;99.90;;;;;;4976035;28;20050;-67
2023/06/28 02:22:13;;;;;;;7.15;3.78;;;18.40;99.90;;;;;;4976144;28;20031;-67
2023/06/28 02:24:39;;;;;;;7.93;4.15;;;18.40;99.90;;;;;;5007344;28;20027;-67
2023/06/28 02:27:05;;;;;;;10.90;3.88;;;18.30;99.90;;;;;;4975250;28;20372;-67
2023/06/28 02:29:30;;;;;;;8.50;3.28;;;18.30;99.90;;;;;;4976543;28;20029;-67
2023/06/28 02:31:56;;;;;;;7.95;3.95;;;18.20;99.90;;;;;;4976585;28;20086;-67
2023/06/28 02:34:22;;;;;;;6.40;2.95;;;18.30;99.90;;;;;;4976575;28;20082;-67
2023/06/28 02:36:48;;;;;;;11.98;3.72;;;18.20;99.90;;;;;;4975777;28;20491;-67
2023/06/28 02:39:13;;;;;;;8.27;3.67;;;18.30;99.90;;;;;;4976230;28;20491;-67
2023/06/28 02:41:39;;;;;;;8.48;3.80;;;18.20;99.90;;;;;;4975091;28;20031;-67
2023/06/28 02:44:05;;;;;;;10.95;3.65;;;18.20;99.90;;;;;;4976367;28;20023;-67
2023/06/28 02:46:30;;;;;;;7.03;3.85;;;18.20;99.90;;;;;;4975519;28;20090;-67
2023/06/28 02:48:56;;;;;;;7.75;4.15;;;18.20;99.90;;;;;;5008935;28;20492;-67
2023/06/28 02:51:22;;;;;;;8.43;3.60;;;18.30;99.90;;;;;;4979137;28;20411;-67
2023/06/28 02:53:47;;;;;;;6.65;3.40;;;18.20;99.90;;;;;;4980044;28;20027;-68
2023/06/28 02:56:15;;;;;;;8.10;3.88;;;18.20;99.90;;;;;;4979295;28;20109;-67
2023/06/28 02:58:41;;;;;;;7.93;4.50;;;18.20;99.90;;;;;;4978231;28;20023;-67
2023/06/28 03:01:07;;;;;;;9.93;3.70;;;18.30;99.90;;;;;;4980055;28;20053;-68
2023/06/28 03:03:34;;;;;;;5.68;3.83;;;18.20;99.90;;;;;;4980035;28;20054;-67
2023/06/28 03:06:00;;;;;;;7.80;3.83;;;18.20;99.90;;;;;;4977338;28;20059;-67
2023/06/28 03:08:26;;;;;;;6.57;3.63;;;18.20;99.90;;;;;;5010407;28;20034;-67
2023/06/28 03:10:51;;;;;;;5.15;3.38;;;18.20;99.90;;;;;;4979734;28;20023;-68
2023/06/28 03:13:17;;;;;;;7.43;4.15;;;18.20;99.90;;;;;;4979832;28;20057;-68
2023/06/28 03:15:43;;;;;;;5.68;3.97;;;18.20;99.90;;;;;;4978116;28;20027;-67
2023/06/28 03:18:08;;;;;;;8.73;4.03;;;18.20;99.90;;;;;;4978066;28;20110;-68
2023/06/28 03:20:34;;;;;;;9.57;4.25;;;18.20;99.90;;;;;;4979784;28;20082;-67
2023/06/28 03:23:03;;;;;;;8.77;4.30;;;18.20;99.90;;;;;;4978401;28;20029;-68
2023/06/28 03:25:29;;;;;;;9.88;4.72;;;18.10;99.90;;;;;;4979582;28;20427;-68
2023/06/28 03:27:55;;;;;;;10.30;5.22;;;18.10;99.90;;;;;;4977333;28;20041;-68
2023/06/28 03:30:21;;;;;;;9.05;4.95;;;18.10;99.90;;;;;;5010633;28;20058;-68
2023/06/28 03:32:47;;;;;;;9.23;5.90;;;18.10;99.90;;;;;;4979266;28;20031;-68
2023/06/28 03:35:12;;;;;;;11.50;6.32;;;18.10;99.90;;;;;;4977847;28;20463;-68
2023/06/28 03:37:38;;;;;;;8.80;5.63;;;18.10;99.90;;;;;;5008308;28;20035;-68
2023/06/28 03:40:04;;;;;;;12.48;6.78;;;18.10;99.90;;;;;;4979461;28;20023;-67
2023/06/28 03:42:30;;;;;;;14.52;6.68;;;18.10;99.90;;;;;;4977519;28;20023;-68
2023/06/28 03:44:56;;;;;;;13.48;6.72;;;18.10;99.90;;;;;;4979602;28;20502;-68
2023/06/28 03:47:21;;;;;;;11.80;5.78;;;18.10;99.90;;;;;;4978498;28;20521;-68
2023/06/28 03:49:47;;;;;;;11.45;6.30;;;18.10;99.90;;;;;;4979361;28;20023;-67
2023/06/28 03:52:13;;;;;;;15.95;7.70;;;18.10;99.90;;;;;;4979278;28;20447;-68
2023/06/28 03:54:39;;;;;;;17.20;6.10;;;18.10;99.90;;;;;;4979347;28;20039;-68
2023/06/28 03:57:05;;;;;;;16.48;7.50;;;18.10;99.90;;;;;;4976102;28;20054;-68
2023/06/28 03:59:31;;;;;;;9.98;6.45;;;18.10;99.90;;;;;;4979278;28;20037;-68
2023/06/28 04:01:56;;;;;;;11.35;6.53;;;18.10;99.90;;;;;;4978547;28;20034;-68
2023/06/28 04:04:22;;;;;;;13.27;7.57;;;18.10;99.90;;;;;;4979014;28;20030;-67
2023/06/28 04:06:48;;;;;;;13.52;6.13;;;18.10;99.90;;;;;;4978007;28;20035;-68
2023/06/28 04:09:15;;;;;;;12.63;6.50;;;18.10;99.90;;;;;;4978828;28;20031;-68
2023/06/28 04:11:41;;;;;;;11.27;6.38;;;18.10;99.90;;;;;;4978710;28;20031;-68
2023/06/28 04:14:06;;;;;;;10.98;6.50;;;18.10;99.90;;;;;;4978468;28;20475;-67
2023/06/28 04:16:32;;;;;;;12.43;7.03;;;18.10;99.90;;;;;;4977965;28;20041;-68
2023/06/28 04:18:59;;;;;;;9.68;6.05;;;18.10;99.90;;;;;;4977998;28;20037;-68
2023/06/28 04:21:26;;;;;;;11.13;6.47;;;18.10;99.90;;;;;;4977027;28;20098;-68
2023/06/28 04:23:51;;;;;;;13.02;6.70;;;18.10;99.90;;;;;;4978382;28;20129;-68
2023/06/28 04:26:19;;;;;;;13.30;6.70;;;18.20;99.90;;;;;;4977291;28;20119;-68
2023/06/28 04:28:45;;;;;;;9.57;6.43;;;18.20;99.90;;;;;;4978258;28;20110;-68
2023/06/28 04:31:10;;;;;;;16.73;6.97;;;18.20;99.90;;;;;;5009682;28;20045;-68
2023/06/28 04:33:36;;;;;;;13.10;6.63;;;18.20;99.90;;;;;;4976983;28;20023;-68
2023/06/28 04:36:02;;;;;;;14.82;8.68;;;18.20;99.90;;;;;;5008622;28;20094;-68
2023/06/28 04:38:31;;;;;;;11.57;7.35;;;18.20;99.90;;;;;;4976431;28;20448;-68
2023/06/28 04:40:56;;;;;;;12.55;6.40;;;18.20;99.90;;;;;;4978451;28;20395;-68
2023/06/28 04:43:23;;;;;;;14.95;6.82;;;18.20;99.90;;;;;;4977940;28;20133;-68
2023/06/28 04:45:48;;;;;;;12.30;6.80;;;18.20;99.90;;;;;;4978024;28;20019;-68
2023/06/28 04:48:14;;;;;;;9.57;6.63;;;18.20;99.90;;;;;;4977503;28;20097;-68
2023/06/28 04:50:40;;;;;;;15.15;7.88;;;18.20;99.90;;;;;;4978388;28;20031;-68
2023/06/28 04:53:06;;;;;;;11.30;6.80;;;18.20;99.90;;;;;;4978079;28;20534;-68
2023/06/28 04:55:34;;;;;;;12.52;7.15;;;18.20;99.90;;;;;;4978092;28;20027;-67
2023/06/28 04:58:02;;;;;;;13.38;8.02;;;18.20;99.90;;;;;;4972851;28;20053;-67
2023/06/28 05:00:31;;;;;;;12.32;6.70;;;18.20;99.90;;;;;;4977519;28;20504;-67
2023/06/28 05:03:00;;;;;;;23.83;9.48;;;18.20;99.90;;;;;;4977924;28;20085;-68
2023/06/28 05:05:26;;;;;;;10.35;6.50;;;18.20;99.90;;;;;;4977680;28;20119;-67
2023/06/28 05:07:53;;;;;;;12.52;8.20;;;18.30;99.90;;;;;;5007853;28;20026;-67
2023/06/28 05:10:23;;;;;;;12.65;7.32;;;18.20;99.90;;;;;;4977786;28;20015;-67
2023/06/28 05:12:51;;;;;;;15.60;8.03;;;18.20;99.90;;;;;;4976482;28;20415;-67
2023/06/28 05:15:20;;;;;;;14.80;8.30;;;18.30;99.90;;;;;;4977645;28;20026;-67
2023/06/28 05:17:48;;;;;;;11.75;6.97;;;18.30;99.90;;;;;;4974728;28;20023;-67
2023/06/28 05:20:13;;;;;;;18.17;8.07;;;18.30;99.90;;;;;;4975254;28;20047;-68
2023/06/28 05:22:49;;;;;;;16.30;7.55;;;18.30;99.90;;;;;;4977606;28;20019;-68
2023/06/28 05:25:15;;;;;;;13.65;7.30;;;18.30;99.90;;;;;;4977301;28;20019;-67
2023/06/28 05:27:40;;;;;;;11.05;6.63;;;18.30;99.90;;;;;;4974150;28;20029;-67
2023/06/28 05:30:07;;;;;;;14.90;8.05;;;18.30;99.90;;;;;;4977889;28;20027;-67
2023/06/28 05:32:34;;;;;;;9.88;6.93;;;18.30;99.90;;;;;;4978439;28;20029;-67
2023/06/28 05:35:02;;;;;;;17.33;7.40;;;18.40;99.90;;;;;;4978148;28;20415;-68
2023/06/28 05:37:27;;;;;;;13.55;7.40;;;18.40;99.90;;;;;;4977041;28;20507;-68
2023/06/28 05:39:53;;;;;;;15.70;7.78;;;18.40;99.90;;;;;;4978317;28;20045;-67
2023/06/28 05:42:20;;;;;;;12.45;6.47;;;18.50;99.90;;;;;;4976668;28;20026;-67
2023/06/28 05:44:46;;;;;;;9.63;7.07;;;18.50;99.90;;;;;;5009398;28;20058;-67
2023/06/28 05:47:11;;;;;;;13.95;7.00;;;18.50;99.90;;;;;;4999413;28;20463;-67
2023/06/28 05:49:37;;;;;;;13.18;6.55;;;18.60;99.90;;;;;;4963557;28;20396;-67
2023/06/28 05:52:05;;;;;;;13.23;6.93;;;18.60;99.90;;;;;;4961125;28;20027;-67
2023/06/28 05:54:30;;;;;;;14.68;6.57;;;18.60;99.90;;;;;;4977239;28;20014;-67
2023/06/28 05:56:57;;;;;;;11.48;6.55;;;18.60;99.90;;;;;;4965759;28;20029;-67
2023/06/28 05:59:23;;;;;;;14.80;7.18;;;18.70;99.90;;;;;;4959001;28;20082;-67
2023/06/28 06:01:48;;;;;;;11.80;6.70;;;18.70;99.90;;;;;;4965181;28;20027;-67
2023/06/28 06:04:14;;;;;;;15.13;6.03;;;18.80;99.90;;;;;;4967334;28;20093;-67
2023/06/28 06:06:40;;;;;;;14.48;6.60;;;18.90;99.90;;;;;;4977778;28;20101;-68
2023/06/28 06:09:05;;;;;;;15.52;6.53;;;18.90;99.90;;;;;;4977640;28;20038;-68
2023/06/28 06:11:31;;;;;;;13.68;6.57;;;18.90;99.90;;;;;;4966696;28;20076;-68
2023/06/28 06:13:56;;;;;;;14.07;6.70;;;19.00;99.90;;;;;;4977467;28;20055;-67
2023/06/28 06:16:22;;;;;;;10.40;6.60;;;19.00;99.90;;;;;;4977885;28;20495;-68
2023/06/28 06:18:48;;;;;;;10.93;6.93;;;19.00;99.90;;;;;;4977505;28;20117;-68
2023/06/28 06:21:13;;;;;;;10.23;6.00;;;19.10;99.90;;;;;;4977764;28;20088;-67
2023/06/28 06:23:39;;;;;;;11.60;6.40;;;19.10;99.90;;;;;;4975831;28;20027;-67
2023/06/28 06:26:04;;;;;;;14.25;6.20;;;19.30;99.90;;;;;;4970994;28;20078;-67
2023/06/28 06:28:30;;;;;;;15.57;6.82;;;19.30;99.90;;;;;;4976763;28;20022;-67
2023/06/28 06:30:56;;;;;;;10.32;6.38;;;19.30;99.90;;;;;;4977868;28;20015;-67
2023/06/28 06:33:21;;;;;;;10.93;6.10;;;19.40;99.90;;;;;;4973334;28;20035;-67
2023/06/28 06:35:48;;;;;;;11.35;5.70;;;19.50;99.90;;;;;;4974747;28;20022;-68
2023/06/28 06:38:14;;;;;;;12.27;5.80;;;19.50;99.90;;;;;;4976489;28;20058;-66
2023/06/28 06:40:39;;;;;;;8.82;5.82;;;19.60;99.90;;;;;;4976412;28;20532;-66
2023/06/28 06:43:06;;;;;;;10.27;6.07;;;19.80;99.90;;;;;;4976214;28;20034;-67
2023/06/28 06:45:31;;;;;;;11.45;5.60;;;19.90;99.90;;;;;;4976165;28;20109;-67
2023/06/28 06:47:57;;;;;;;15.88;6.55;;;19.90;99.90;;;;;;4973696;28;20122;-66
2023/06/28 06:50:22;;;;;;;7.55;5.35;;;19.90;99.90;;;;;;4971720;28;20039;-67
2023/06/28 06:52:50;;;;;;;9.60;5.35;;;20.00;99.90;;;;;;4975927;28;20019;-67
2023/06/28 06:55:15;;;;;;;16.33;4.90;;;20.00;99.90;;;;;;4970230;28;20083;-67
2023/06/28 06:57:41;;;;;;;6.28;4.95;;;20.10;99.90;;;;;;4975688;28;20027;-66
2023/06/28 07:00:08;;;;;;;15.95;5.55;;;20.10;99.90;;;;;;4976203;28;20027;-67
2023/06/28 07:02:34;;;;;;;10.55;5.30;;;20.20;99.90;;;;;;4976545;28;20102;-66
2023/06/28 07:05:00;;;;;;;13.23;5.20;;;20.20;99.90;;;;;;4975550;28;20066;-66
2023/06/28 07:07:25;;;;;;;9.75;5.22;;;20.20;99.90;;;;;;4976361;28;20027;-66
2023/06/28 07:09:51;;;;;;;10.30;4.93;;;20.30;99.90;;;;;;4976233;28;20082;-67
2023/06/28 07:12:17;;;;;;;12.48;4.97;;;20.30;99.90;;;;;;4972982;28;20035;-67
2023/06/28 07:14:42;;;;;;;13.48;4.53;;;20.40;99.90;;;;;;4974331;28;20110;-67
2023/06/28 07:17:09;;;;;;;8.70;4.57;;;20.40;99.90;;;;;;4973941;28;20030;-67
2023/06/28 07:19:35;;;;;;;8.60;4.57;;;20.50;99.90;;;;;;4975905;28;20023;-67
2023/06/28 07:22:01;;;;;;;12.90;4.95;;;20.60;99.90;;;;;;4976099;28;20181;-67
2023/06/28 07:24:27;;;;;;;14.77;4.95;;;20.70;99.90;;;;;;4975154;28;20070;-67
2023/06/28 07:26:52;;;;;;;12.45;5.40;;;20.70;99.90;;;;;;4970914;28;20124;-67
2023/06/28 07:29:18;;;;;;;8.65;4.25;;;20.90;99.90;;;;;;4976222;28;20058;-67
2023/06/28 07:31:44;;;;;;;8.30;4.88;;;21.00;99.90;;;;;;4976065;28;20101;-66
2023/06/28 07:34:09;;;;;;;10.27;4.68;;;21.00;99.90;;;;;;4975211;28;20431;-67
2023/06/28 07:36:35;;;;;;;10.25;4.45;;;21.00;99.90;;;;;;4978213;28;20095;-67
2023/06/28 07:39:01;;;;;;;9.90;5.30;;;21.00;99.90;;;;;;4979634;28;20035;-67
2023/06/28 07:41:26;;;;;;;11.95;4.75;;;21.10;99.90;;;;;;4979299;28;20027;-67
2023/06/28 07:43:52;;;;;;;9.15;3.75;;;21.20;99.90;;;;;;4976960;28;20026;-67
2023/06/28 07:46:17;;;;;;;5.20;3.90;;;21.30;99.90;;;;;;4979190;28;20019;-67
2023/06/28 07:48:43;;;;;;;12.23;4.43;;;21.30;99.90;;;;;;4977750;28;20034;-67
2023/06/28 07:51:09;;;;;;;9.15;4.03;;;21.40;99.90;;;;;;4978190;28;20237;-67
2023/06/28 07:53:35;;;;;;;7.15;3.90;;;21.50;99.90;;;;;;4977216;28;20038;-66
2023/06/28 07:56:01;;;;;;;9.13;3.90;;;21.50;99.90;;;;;;4975870;28;20106;-67
2023/06/28 07:58:27;;;;;;;6.35;3.75;;;21.60;99.90;;;;;;5009235;28;20645;-67
2023/06/28 08:00:53;;;;;;;11.85;4.20;;;21.70;99.90;;;;;;4977747;28;20138;-67
2023/06/28 08:03:19;;;;;;;9.35;3.95;;;21.70;99.90;;;;;;4978434;28;20105;-67
2023/06/28 08:05:45;;;;;;;8.65;5.05;;;21.80;99.90;;;;;;4978819;28;20030;-67
2023/06/28 08:08:11;;;;;;;14.10;4.63;;;21.80;99.90;;;;;;4979173;28;20031;-67
2023/06/28 08:10:36;;;;;;;7.70;3.83;;;21.80;99.90;;;;;;4976524;28;20405;-67
2023/06/28 08:13:02;;;;;;;12.80;4.13;;;21.80;99.90;;;;;;4978986;28;20097;-66
2023/06/28 08:15:28;;;;;;;8.45;4.50;;;21.90;99.90;;;;;;4978072;28;20026;-67
2023/06/28 08:17:53;;;;;;;8.13;3.70;;;22.00;99.90;;;;;;4977213;28;20027;-66
2023/06/28 08:20:20;;;;;;;10.50;4.30;;;22.10;99.90;;;;;;4978577;28;20151;-67
2023/06/28 08:22:45;;;;;;;10.13;3.75;;;22.20;99.90;;;;;;4978832;28;20029;-68
2023/06/28 08:25:11;;;;;;;7.55;3.63;;;22.20;99.90;;;;;;4977758;28;20142;-67
2023/06/28 08:27:37;;;;;;;11.63;4.82;;;22.20;99.90;;;;;;4976573;28;20117;-69
2023/06/28 08:30:03;;;;;;;9.23;4.45;;;22.30;99.90;;;;;;4978617;28;20233;-68
2023/06/28 08:32:29;;;;;;;8.80;4.07;;;22.40;99.90;;;;;;4978705;28;20037;-69
2023/06/28 08:34:55;;;;;;;9.98;4.35;;;22.50;99.90;;;;;;4977802;28;20030;-68
2023/06/28 08:37:20;;;;;;;7.32;4.07;;;22.60;99.90;;;;;;4976633;28;20031;-68
2023/06/28 08:39:46;;;;;;;5.53;3.20;;;22.80;99.90;;;;;;4978487;28;20046;-68
2023/06/28 08:42:13;;;;;;;9.75;3.67;;;22.90;99.90;;;;;;4974282;28;20656;-68
2023/06/28 08:44:40;;;;;;;7.82;2.95;;;22.90;99.90;;;;;;4977619;28;20053;-68
2023/06/28 08:47:06;;;;;;;7.95;3.42;;;23.00;99.90;;;;;;4978209;28;20038;-68
2023/06/28 08:49:32;;;;;;;8.80;3.08;;;23.20;99.90;;;;;;4975813;28;20027;-68
2023/06/28 08:51:59;;;;;;;6.45;3.97;;;23.20;99.90;;;;;;4978345;28;20029;-68
2023/06/28 08:54:28;;;;;;;9.85;3.90;;;23.20;99.90;;;;;;4977550;28;20026;-69
2023/06/28 08:56:58;;;;;;;10.25;3.60;;;23.30;99.90;;;;;;4976623;28;20102;-68
2023/06/28 08:59:24;;;;;;;14.15;3.75;;;23.50;99.90;;;;;;4978189;28;20089;-69
2023/06/28 09:01:54;;;;;;;8.63;3.05;;;23.60;99.90;;;;;;4976789;28;20038;-70
2023/06/28 09:04:26;;;;;;;6.88;3.40;;;23.60;99.90;;;;;;4973339;28;20038;-69
2023/06/28 09:06:51;;;;;;;10.15;3.33;;;23.60;99.90;;;;;;4972831;28;20089;-69
2023/06/28 09:09:18;;;;;;;9.40;3.47;;;23.80;99.90;;;;;;4977961;28;20022;-69
2023/06/28 09:11:44;;;;;;;6.65;3.03;;;24.00;99.90;;;;;;4977551;28;20026;-69
2023/06/28 09:14:11;;;;;;;5.70;2.88;;;23.90;99.90;;;;;;4977179;28;20023;-68
2023/06/28 09:16:37;;;;;;;16.77;4.18;;;24.00;99.90;;;;;;4977710;28;20072;-69
2023/06/28 09:19:02;;;;;;;9.27;2.95;;;23.90;99.90;;;;;;4977914;28;20090;-69
2023/06/28 09:21:29;;;;;;;6.10;3.00;;;23.90;99.90;;;;;;4977256;28;20043;-69
2023/06/28 09:23:55;;;;;;;6.10;3.05;;;23.90;99.90;;;;;;4975784;28;20110;-69
2023/06/28 09:26:32;;;;;;;11.00;2.55;;;24.00;99.90;;;;;;4977149;28;20057;-68
2023/06/28 09:29:11;;;;;;;8.43;3.70;;;24.00;99.90;;;;;;4977248;28;20023;-68
2023/06/28 09:31:47;;;;;;;7.72;3.00;;;24.00;99.90;;;;;;4976124;28;20561;-68
2023/06/28 09:34:13;;;;;;;8.13;3.03;;;24.00;99.90;;;;;;4975906;28;20070;-69
2023/06/28 09:36:39;;;;;;;8.50;3.10;;;24.00;99.90;;;;;;4977183;28;20038;-68
2023/06/28 09:39:07;;;;;;;6.60;3.10;;;24.20;99.90;;;;;;4977491;28;20106;-69
2023/06/28 09:41:37;;;;;;;8.23;3.10;;;24.30;99.90;;;;;;4977206;28;20026;-69
2023/06/28 09:44:04;;;;;;;7.45;3.38;;;24.40;99.90;;;;;;4969970;28;20034;-69
2023/06/28 09:46:33;;;;;;;6.43;2.92;;;24.50;99.90;;;;;;4975789;28;20034;-68
2023/06/28 09:48:58;;;;;;;5.40;3.03;;;24.70;99.90;;;;;;4977208;28;20026;-68
2023/06/28 09:51:24;;;;;;;7.03;3.30;;;24.60;99.90;;;;;;4977128;28;20031;-68
2023/06/28 09:53:56;;;;;;;10.40;3.22;;;24.60;99.90;;;;;;4974869;28;20023;-68
2023/06/28 09:56:35;;;;;;;7.45;2.47;;;24.70;99.90;;;;;;4976697;28;20034;-68
2023/06/28 09:59:06;;;;;;;6.25;2.95;;;24.80;99.90;;;;;;4976545;28;20153;-69
2023/06/28 10:01:37;;;;;;;5.38;3.65;;;24.90;99.90;;;;;;4977103;28;20403;-70
2023/06/28 10:04:07;;;;;;;8.07;3.03;;;25.10;99.90;;;;;;4976329;28;20106;-70
2023/06/28 10:06:34;;;;;;;7.35;3.10;;;25.00;99.90;;;;;;4975156;28;20049;-70
2023/06/28 10:09:00;;;;;;;5.70;3.05;;;25.00;99.90;;;;;;4976925;28;20029;-70
2023/06/28 10:11:30;;;;;;;8.23;3.47;;;25.10;99.90;;;;;;5007962;28;20468;-70
2023/06/28 10:13:56;;;;;;;6.50;3.05;;;25.20;99.90;;;;;;4976171;28;20026;-70
2023/06/28 10:16:26;;;;;;;6.43;2.83;;;25.20;99.90;;;;;;4975781;28;20045;-69
2023/06/28 10:18:52;;;;;;;6.50;3.22;;;25.20;99.90;;;;;;4975704;28;20487;-70
2023/06/28 10:21:18;;;;;;;7.18;3.33;;;25.30;99.90;;;;;;4976581;28;20047;-70
2023/06/28 10:23:44;;;;;;;6.93;2.80;;;25.30;99.90;;;;;;4974497;28;20045;-69
2023/06/28 10:26:12;;;;;;;6.88;2.75;;;25.40;99.90;;;;;;4976583;28;20113;-70
2023/06/28 10:28:40;;;;;;;5.22;2.53;;;25.40;99.90;;;;;;4975044;28;20026;-70
2023/06/28 10:31:06;;;;;;;5.18;2.70;;;25.50;99.90;;;;;;4975083;28;20023;-69
2023/06/28 10:33:33;;;;;;;11.30;2.70;;;25.50;99.90;;;;;;4976368;28;20479;-69
2023/06/28 10:36:02;;;;;;;6.88;3.00;;;25.60;99.90;;;;;;4976022;28;20039;-70
2023/06/28 10:38:37;;;;;;;5.55;2.53;;;25.70;99.90;;;;;;4974450;28;20027;-70
2023/06/28 10:41:06;;;;;;;4.47;2.63;;;25.60;99.90;;;;;;4975670;28;20030;-69
2023/06/28 10:43:32;;;;;;;7.65;2.40;;;25.70;99.90;;;;;;4976153;28;20030;-69
2023/06/28 10:45:57;;;;;;;6.65;2.42;;;26.00;99.90;;;;;;4974796;28;20399;-69
2023/06/28 10:48:26;;;;;;;4.30;2.45;;;26.00;99.90;;;;;;5001058;28;20038;-69
2023/06/28 10:50:52;;;;;;;5.07;2.78;;;26.30;99.90;;;;;;4975100;28;20030;-68
2023/06/28 10:53:23;;;;;;;5.45;2.63;;;26.30;99.90;;;;;;4974792;28;20019;-67
2023/06/28 10:56:04;;;;;;;6.00;2.08;;;26.20;99.90;;;;;;4975139;28;20042;-69
2023/06/28 10:58:37;;;;;;;5.28;2.15;;;26.10;99.90;;;;;;4974272;28;20137;-67
2023/06/28 11:01:04;;;;;;;5.35;2.50;;;26.00;99.90;;;;;;4976395;28;20494;-67
2023/06/28 11:03:43;;;;;;;8.80;2.50;;;26.30;99.90;;;;;;4975848;28;20030;-69
2023/06/28 11:06:11;;;;;;;5.68;2.40;;;26.60;99.90;;;;;;4973293;28;20034;-70
2023/06/28 11:08:39;;;;;;;5.30;2.53;;;26.60;98.50;;;;;;4976477;28;20022;-69
2023/06/28 11:11:06;;;;;;;5.10;2.10;;;26.50;98.10;;;;;;4978085;28;20027;-70
2023/06/28 11:13:48;;;;;;;4.63;2.33;;;26.40;96.90;;;;;;4978081;28;20082;-69
2023/06/28 11:16:24;;;;;;;4.07;2.20;;;26.50;98.30;;;;;;4973790;28;20030;-69
2023/06/28 11:18:51;;;;;;;2.78;1.67;;;26.50;97.00;;;;;;4980029;28;20478;-69
2023/06/28 11:21:22;;;;;;;3.28;1.85;;;26.50;97.50;;;;;;4978367;28;20062;-69
2023/06/28 11:23:48;;;;;;;4.07;2.25;;;26.60;96.80;;;;;;4979206;28;20578;-70
2023/06/28 11:26:33;;;;;;;4.32;1.92;;;26.70;96.60;;;;;;4979438;28;20098;-67
2023/06/28 11:28:59;;;;;;;5.25;2.10;;;26.60;97.30;;;;;;4979871;28;20027;-69
2023/06/28 11:31:40;;;;;;;5.68;2.25;;;26.70;95.30;;;;;;4979828;28;20057;-67
2023/06/28 11:34:09;;;;;;;6.18;2.10;;;26.90;95.50;;;;;;4977402;28;20030;-66
2023/06/28 11:36:35;;;;;;;6.20;2.30;;;26.90;95.00;;;;;;4979706;28;20027;-67
2023/06/28 11:39:03;;;;;;;5.03;2.05;;;26.90;95.00;;;;;;4977030;28;20101;-69
2023/06/28 11:41:34;;;;;;;6.18;2.03;;;27.10;94.60;;;;;;4975331;28;20121;-66
2023/06/28 11:44:04;;;;;;;6.95;2.05;;;27.10;93.80;;;;;;4973690;28;20031;-67
2023/06/28 11:46:32;;;;;;;;;;;27.20;93.30;;;;;;4975206;28;20035;-66
2023/06/28 11:49:02;;;;;;;4.88;2.25;;;27.20;93.90;;;;;;4975399;28;19906;-67
2023/06/28 11:51:28;;;;;;;7.57;2.60;;;27.50;96.00;;;;;;4980436;28;20111;-68
2023/06/28 11:53:56;;;;;;;5.60;2.20;;;27.60;93.70;;;;;;4980356;28;20047;-67
2023/06/28 11:56:34;;;;;;;5.22;2.30;;;27.40;93.90;;;;;;4980002;28;20109;-66
2023/06/28 11:59:18;;;;;;;3.55;2.03;;;27.50;92.70;;;;;;5004478;28;20031;-67
2023/06/28 12:01:45;;;;;;;4.72;2.03;;;27.50;93.50;;;;;;4980194;28;20483;-68
2023/06/28 12:04:20;;;;;;;8.02;1.92;;;27.50;92.00;;;;;;4980034;28;20029;-66
2023/06/28 12:06:47;;;;;;;5.03;1.80;;;27.50;92.90;;;;;;4974370;28;20027;-67
2023/06/28 12:09:22;;;;;;;8.40;2.20;;;27.80;93.30;;;;;;4980193;28;20023;-67
2023/06/28 12:12:06;;;;;;;6.53;2.03;;;27.90;91.70;;;;;;4978739;28;20332;-67
2023/06/28 12:14:43;;;;;;;3.47;1.90;;;28.00;90.90;;;;;;4975695;28;20015;-67
2023/06/28 12:17:09;;;;;;;5.60;2.75;;;28.10;91.10;;;;;;4980222;28;20038;-67
2023/06/28 12:19:35;;;;;;;3.67;1.70;;;28.30;93.00;;;;;;4979764;28;20031;-68
2023/06/28 12:22:06;;;;;;;5.25;2.88;;;28.30;90.40;;;;;;4979436;28;20054;-67
2023/06/28 12:24:34;;;;;;;5.80;1.95;;;28.20;90.20;;;;;;4979908;28;20030;-67
2023/06/28 12:27:02;;;;;;;5.75;2.47;;;28.10;90.10;;;;;;4979223;28;20026;-66
2023/06/28 12:29:31;;;;;;;5.10;1.98;;;28.00;89.00;;;;;;5004635;28;20027;-67
2023/06/28 12:32:03;;;;;;;6.72;2.20;;;27.90;88.90;;;;;;4974899;28;20087;-67
2023/06/28 12:34:33;;;;;;;6.55;2.58;;;28.10;85.70;;;;;;4974386;28;20023;-67
2023/06/28 12:37:03;;;;;;;8.93;2.35;;;27.90;82.70;;;;;;4973354;28;20419;-67
2023/06/28 12:39:31;;;;;;;4.15;1.95;;;28.10;87.10;;;;;;4965063;28;20050;-68
2023/06/28 12:42:16;;;;;;;5.57;2.20;;;28.20;84.20;;;;;;4969835;28;20402;-67